Time;durP1;ratioP1;P1;durP2;ratioP2;P2;SDS_P1;SDS_P2;PMS_P1;PMS_P2;Temp;Humidity;BMP_temperature;BMP_pressure;BME280_temperature;BME280_humidity;BME280_pressure;Samples;Min_cycle;Max_cycle;Signal;HPM_P1;HPM_P2
2022/01/19 00:00:57;;;;;;;41.78;21.02;;;4.90;99.90;;;;;;5062686;28;20032;-79
2022/01/19 00:03:23;;;;;;;43.63;20.10;;;4.80;99.90;;;;;;5077887;28;20476;-79
2022/01/19 00:05:51;;;;;;;42.75;22.20;;;4.80;99.90;;;;;;5076597;28;20048;-79
2022/01/19 00:08:20;;;;;;;42.20;21.63;;;4.80;99.90;;;;;;5064110;28;20085;-79
2022/01/19 00:10:48;;;;;;;38.00;21.48;;;4.80;99.90;;;;;;5075200;28;20266;-79
2022/01/19 00:13:14;;;;;;;52.75;22.48;;;4.70;99.90;;;;;;5074142;28;20070;-79
2022/01/19 00:15:40;;;;;;;42.50;22.58;;;4.70;99.90;;;;;;5055100;28;20056;-79
2022/01/19 00:18:05;;;;;;;42.78;22.10;;;4.70;99.90;;;;;;5068592;28;20528;-79
2022/01/19 00:20:33;;;;;;;42.97;20.48;;;4.70;99.90;;;;;;5073926;28;20036;-79
2022/01/19 00:23:00;;;;;;;45.95;22.90;;;4.70;99.90;;;;;;5069111;28;20028;-79
2022/01/19 00:25:26;;;;;;;40.38;19.73;;;4.60;99.90;;;;;;5086585;28;20055;-79
2022/01/19 00:27:52;;;;;;;44.58;22.15;;;4.60;99.90;;;;;;5071475;28;20546;-79
2022/01/19 00:30:18;;;;;;;36.60;21.02;;;4.60;99.90;;;;;;5075526;28;20048;-79
2022/01/19 00:32:44;;;;;;;42.10;21.30;;;4.60;99.90;;;;;;5075788;28;20040;-79
2022/01/19 00:35:11;;;;;;;44.67;21.08;;;4.60;99.90;;;;;;5064591;28;20035;-79
2022/01/19 00:37:39;;;;;;;40.90;20.10;;;4.40;99.90;;;;;;5055983;28;20041;-79
2022/01/19 00:40:06;;;;;;;39.35;21.05;;;4.40;99.90;;;;;;5069545;28;20039;-79
2022/01/19 00:42:32;;;;;;;47.53;22.35;;;4.30;99.90;;;;;;5087756;28;20032;-79
2022/01/19 00:44:58;;;;;;;44.28;22.35;;;4.30;99.90;;;;;;5069314;28;20039;-79
2022/01/19 00:47:24;;;;;;;35.38;20.30;;;4.30;99.90;;;;;;5076880;28;20032;-79
2022/01/19 00:49:50;;;;;;;43.75;20.73;;;4.30;99.90;;;;;;5070126;28;20036;-79
2022/01/19 00:52:16;;;;;;;37.90;19.80;;;4.20;99.90;;;;;;5054350;28;20284;-79
2022/01/19 00:54:42;;;;;;;43.60;21.95;;;4.20;99.90;;;;;;5088930;28;20028;-79
2022/01/19 00:57:08;;;;;;;48.88;22.52;;;4.10;99.90;;;;;;5073469;28;20460;-79
2022/01/19 00:59:34;;;;;;;49.92;23.08;;;4.10;99.90;;;;;;5077985;28;20489;-79
2022/01/19 01:02:00;;;;;;;54.80;25.15;;;4.10;99.90;;;;;;5073131;28;20034;-79
2022/01/19 01:04:26;;;;;;;42.17;20.55;;;4.00;99.90;;;;;;5077361;28;20502;-79
2022/01/19 01:06:52;;;;;;;45.60;22.60;;;4.10;99.90;;;;;;5056265;28;20037;-79
2022/01/19 01:09:17;;;;;;;51.47;23.83;;;4.00;99.90;;;;;;5069524;28;20041;-79
2022/01/19 01:12:01;;;;;;;51.15;23.85;;;4.00;99.90;;;;;;5071697;28;20077;-79
2022/01/19 01:18:18;;;;;;;49.28;22.35;;;4.00;99.90;;;;;;5082706;28;20046;-76
2022/01/19 01:20:00;;;;;;;44.83;22.90;;;3.90;99.90;;;;;;5092178;28;20028;-76
2022/01/19 01:22:26;;;;;;;56.25;25.73;;;3.90;99.90;;;;;;5086480;28;20119;-75
2022/01/19 01:24:52;;;;;;;49.80;25.00;;;3.90;99.90;;;;;;5089543;28;20028;-76
2022/01/19 01:27:18;;;;;;;56.15;28.00;;;3.90;99.90;;;;;;5080606;28;20556;-76
2022/01/19 01:29:44;;;;;;;54.33;29.98;;;3.80;99.90;;;;;;5083711;28;20128;-76
2022/01/19 01:32:10;;;;;;;59.47;28.88;;;3.80;99.90;;;;;;5080603;28;20131;-76
2022/01/19 01:34:35;;;;;;;54.10;25.92;;;3.80;99.90;;;;;;5076009;28;20473;-76
2022/01/19 01:37:01;;;;;;;58.15;29.08;;;3.80;99.90;;;;;;5051799;28;20536;-76
2022/01/19 01:39:27;;;;;;;64.50;31.23;;;3.80;99.90;;;;;;5066507;28;20032;-76
2022/01/19 01:41:53;;;;;;;65.93;31.25;;;3.80;99.90;;;;;;5071603;28;20558;-76
2022/01/19 01:44:18;;;;;;;58.05;29.13;;;3.80;99.90;;;;;;5060324;28;20032;-76
2022/01/19 01:46:52;;;;;;;60.42;32.65;;;3.80;99.90;;;;;;5059093;28;20062;-76
2022/01/19 01:49:40;;;;;;;62.53;29.70;;;3.70;99.90;;;;;;5068544;28;20035;-76
2022/01/19 01:54:48;;;;;;;56.95;29.42;;;3.70;99.90;;;;;;5080494;28;20039;-76
2022/01/19 01:57:13;;;;;;;64.70;31.63;;;3.70;99.90;;;;;;5080141;28;20025;-76
2022/01/19 01:59:39;;;;;;;68.05;31.55;;;3.80;99.90;;;;;;5070135;28;20130;-76
2022/01/19 02:02:05;;;;;;;53.17;29.15;;;3.80;99.90;;;;;;5055775;28;20044;-75
2022/01/19 02:04:33;;;;;;;56.72;29.92;;;3.70;99.90;;;;;;5084857;28;20028;-82
2022/01/19 02:09:46;;;;;;;69.95;31.17;;;3.70;99.90;;;;;;5080659;28;20035;-83
2022/01/19 02:25:53;;;;;;;50.58;25.05;;;3.60;99.90;;;;;;5071036;28;20493;-83
2022/01/19 02:36:49;;;;;;;42.63;22.38;;;3.60;99.90;;;;;;5084286;28;20085;-83
2022/01/19 02:42:02;;;;;;;44.95;24.13;;;3.50;99.90;;;;;;5089005;28;20093;-83
2022/01/19 02:46:38;;;;;;;47.47;23.48;;;3.50;99.90;;;;;;5082939;28;20036;-83
2022/01/19 02:49:53;;;;;;;51.65;24.13;;;3.50;99.90;;;;;;5082263;28;20067;-83
2022/01/19 02:52:20;;;;;;;49.10;23.83;;;3.50;99.90;;;;;;5082967;28;20032;-83
2022/01/19 02:54:46;;;;;;;46.40;24.42;;;3.50;99.90;;;;;;5083440;28;20078;-83
2022/01/19 02:57:14;;;;;;;39.80;21.20;;;3.40;99.90;;;;;;5059147;28;20591;-83
2022/01/19 03:10:22;;;;;;;38.28;19.70;;;3.40;99.90;;;;;;5082124;28;20039;-83
2022/01/19 03:12:47;;;;;;;40.47;20.33;;;3.40;99.90;;;;;;5072358;28;20028;-83
2022/01/19 03:15:14;;;;;;;36.55;18.85;;;3.40;99.90;;;;;;5068963;28;20031;-83
2022/01/19 03:17:40;;;;;;;38.50;19.92;;;3.50;99.90;;;;;;5070448;28;20050;-83
2022/01/19 03:20:09;;;;;;;44.20;18.67;;;3.50;99.90;;;;;;5084105;28;20025;-83
2022/01/19 03:22:40;;;;;;;36.15;19.10;;;3.50;99.90;;;;;;5078841;28;20415;-83
2022/01/19 03:25:13;;;;;;;33.80;19.70;;;3.50;99.90;;;;;;5071815;28;21179;-83
2022/01/19 03:27:40;;;;;;;33.83;18.63;;;3.50;99.90;;;;;;5059654;28;20032;-83
2022/01/19 03:30:07;;;;;;;32.42;17.80;;;3.50;99.90;;;;;;5083220;28;20554;-83
2022/01/19 03:32:33;;;;;;;36.65;19.38;;;3.50;99.90;;;;;;5080097;28;20032;-83
2022/01/19 03:34:59;;;;;;;31.30;18.17;;;3.50;99.90;;;;;;5079961;28;20024;-83
2022/01/19 03:37:25;;;;;;;36.28;19.30;;;3.50;99.90;;;;;;5075575;28;20552;-83
2022/01/19 03:39:50;;;;;;;28.85;17.85;;;3.50;99.90;;;;;;5053765;28;20032;-83
2022/01/19 03:42:16;;;;;;;34.20;18.45;;;3.50;99.90;;;;;;5072019;28;20037;-83
2022/01/19 03:44:43;;;;;;;33.60;17.52;;;3.50;99.90;;;;;;5072440;28;20048;-83
2022/01/19 03:47:09;;;;;;;37.53;18.75;;;3.40;99.90;;;;;;5069230;28;20025;-83
2022/01/19 03:49:34;;;;;;;37.40;19.25;;;3.50;99.90;;;;;;5087772;28;20043;-83
2022/01/19 03:52:03;;;;;;;38.58;20.30;;;3.50;99.90;;;;;;5087534;28;20040;-83
2022/01/19 03:54:34;;;;;;;35.97;18.73;;;3.60;99.90;;;;;;5078541;28;20039;-83
2022/01/19 03:57:00;;;;;;;39.88;20.80;;;3.60;99.90;;;;;;5069264;28;20032;-83
2022/01/19 03:59:26;;;;;;;34.65;20.75;;;3.60;99.90;;;;;;5056472;28;20040;-82
2022/01/19 04:01:53;;;;;;;38.65;22.00;;;3.70;99.90;;;;;;5074377;28;20029;-82
2022/01/19 04:04:36;;;;;;;36.10;20.33;;;3.70;99.90;;;;;;5075395;28;20399;-82
2022/01/19 04:09:34;;;;;;;46.92;23.77;;;3.80;99.90;;;;;;5069109;28;20028;-82
2022/01/19 04:11:59;;;;;;;44.28;21.60;;;3.80;99.90;;;;;;5081154;28;20377;-83
2022/01/19 04:14:26;;;;;;;50.03;24.20;;;3.80;99.90;;;;;;5059193;28;20035;-83
2022/01/19 04:16:57;;;;;;;50.28;25.85;;;3.90;99.90;;;;;;5050870;28;20043;-83
2022/01/19 04:19:30;;;;;;;48.38;24.60;;;3.80;99.90;;;;;;5068553;28;20472;-83
2022/01/19 04:21:58;;;;;;;41.83;23.48;;;3.90;99.90;;;;;;5067456;28;20063;-83
2022/01/19 04:24:24;;;;;;;48.97;23.90;;;3.90;99.90;;;;;;5051263;28;20485;-82
2022/01/19 04:29:56;;;;;;;46.42;25.02;;;3.90;99.90;;;;;;5048919;28;20041;-83
2022/01/19 04:32:40;;;;;;;47.67;24.60;;;3.90;99.90;;;;;;5069130;28;20036;-82
2022/01/19 04:35:09;;;;;;;55.50;23.98;;;4.00;99.90;;;;;;5070085;28;20448;-82
2022/01/19 04:37:58;;;;;;;42.35;23.08;;;4.00;99.90;;;;;;5084176;28;20032;-82
2022/01/19 05:04:45;;;;;;;41.17;22.27;;;3.80;99.90;;;;;;5067332;28;20037;-82
2022/01/19 05:07:18;;;;;;;39.10;21.80;;;3.70;99.90;;;;;;5053946;28;20493;-82
2022/01/19 05:09:59;;;;;;;41.78;20.75;;;3.60;99.90;;;;;;5054693;28;20401;-82
2022/01/19 05:15:09;;;;;;;38.72;21.77;;;3.50;99.90;;;;;;5059548;28;20039;-82
2022/01/19 05:17:36;;;;;;;38.20;20.27;;;3.50;99.90;;;;;;5075598;28;20094;-82
2022/01/19 05:20:04;;;;;;;40.72;21.33;;;3.50;99.90;;;;;;5068804;28;20051;-82
2022/01/19 05:22:29;;;;;;;39.22;20.17;;;3.50;99.90;;;;;;5068083;28;20052;-82
2022/01/19 05:24:55;;;;;;;38.10;20.67;;;3.50;99.90;;;;;;5069827;28;20086;-82
2022/01/19 05:27:22;;;;;;;34.92;19.42;;;3.50;99.90;;;;;;5075617;28;20128;-82
2022/01/19 05:29:48;;;;;;;40.22;19.60;;;3.50;99.90;;;;;;5067551;28;20029;-82
2022/01/19 05:32:14;;;;;;;34.35;19.98;;;3.50;99.90;;;;;;5078100;28;20020;-82
2022/01/19 05:34:40;;;;;;;36.30;20.45;;;3.40;99.90;;;;;;5085231;28;20028;-82
2022/01/19 05:37:06;;;;;;;37.08;20.05;;;3.40;99.90;;;;;;5080217;28;20040;-82
2022/01/19 05:39:31;;;;;;;33.70;18.42;;;3.50;99.90;;;;;;5082246;28;20036;-82
2022/01/19 05:41:57;;;;;;;43.80;22.17;;;3.50;99.90;;;;;;5071237;28;20029;-82
2022/01/19 05:44:23;;;;;;;32.90;19.38;;;3.40;99.90;;;;;;5089611;28;20158;-82
2022/01/19 05:46:49;;;;;;;38.83;21.42;;;3.40;99.90;;;;;;5056909;28;20124;-82
2022/01/19 05:49:14;;;;;;;33.85;19.38;;;3.40;99.90;;;;;;5071980;28;20051;-82
2022/01/19 05:51:40;;;;;;;37.92;21.20;;;3.50;99.90;;;;;;5054809;28;20028;-82
2022/01/19 05:54:06;;;;;;;31.75;19.95;;;3.50;99.90;;;;;;5084604;28;20581;-82
2022/01/19 05:56:32;;;;;;;36.80;21.30;;;3.50;99.90;;;;;;5067865;28;20034;-82
2022/01/19 05:58:57;;;;;;;34.10;20.55;;;3.60;99.90;;;;;;5062644;28;20036;-82
2022/01/19 06:01:23;;;;;;;33.92;20.25;;;3.70;99.90;;;;;;5081995;28;20089;-82
2022/01/19 06:03:51;;;;;;;35.58;20.15;;;3.70;99.90;;;;;;5083408;28;20040;-82
2022/01/19 06:06:17;;;;;;;35.03;20.17;;;3.80;99.90;;;;;;5078270;28;20056;-82
2022/01/19 06:08:45;;;;;;;32.90;21.30;;;3.70;99.90;;;;;;5080865;28;20037;-82
2022/01/19 06:11:11;;;;;;;34.42;20.52;;;3.80;99.90;;;;;;5080994;28;20431;-82
2022/01/19 06:13:38;;;;;;;35.15;20.08;;;3.90;99.90;;;;;;5085410;28;20028;-82
2022/01/19 06:16:04;;;;;;;31.83;19.88;;;3.90;99.90;;;;;;5082013;28;20113;-83
2022/01/19 06:18:30;;;;;;;33.83;21.48;;;3.90;99.90;;;;;;5060995;28;20028;-82
2022/01/19 06:20:56;;;;;;;29.50;20.00;;;3.90;99.90;;;;;;5054050;28;20020;-83
2022/01/19 06:23:22;;;;;;;35.45;21.25;;;4.00;99.90;;;;;;5082583;28;20079;-83
2022/01/19 06:25:48;;;;;;;38.20;21.83;;;4.00;99.90;;;;;;5080099;28;20032;-83
2022/01/19 06:28:14;;;;;;;33.55;20.85;;;4.10;99.90;;;;;;5072062;28;20115;-83
2022/01/19 06:30:40;;;;;;;35.15;22.55;;;4.10;99.90;;;;;;5079431;28;20036;-83
2022/01/19 06:33:06;;;;;;;32.92;23.08;;;4.10;99.90;;;;;;5083615;28;20028;-83
2022/01/19 06:35:32;;;;;;;33.88;22.08;;;4.10;99.90;;;;;;5066806;28;20024;-83
2022/01/19 06:37:58;;;;;;;36.65;22.67;;;4.10;99.90;;;;;;5061765;28;20031;-84
2022/01/19 06:40:27;;;;;;;35.28;23.83;;;4.20;99.90;;;;;;5070127;28;20039;-84
2022/01/19 06:42:53;;;;;;;32.47;22.38;;;4.20;99.90;;;;;;5080330;28;20480;-85
2022/01/19 06:45:20;;;;;;;34.25;22.50;;;4.20;99.90;;;;;;5053866;28;20150;-85
2022/01/19 06:47:45;;;;;;;30.52;21.73;;;4.20;99.90;;;;;;5069101;28;20098;-85
2022/01/19 06:50:12;;;;;;;34.28;22.00;;;4.30;99.90;;;;;;5069248;28;20484;-85
2022/01/19 06:52:38;;;;;;;32.70;21.35;;;4.30;99.90;;;;;;5059202;28;20115;-84
2022/01/19 06:55:08;;;;;;;40.15;22.40;;;4.40;99.90;;;;;;5068786;28;20043;-84
2022/01/19 06:57:34;;;;;;;35.53;23.00;;;4.40;99.90;;;;;;5068864;28;20081;-85
2022/01/19 06:59:59;;;;;;;33.47;22.50;;;4.30;99.90;;;;;;5053721;28;20435;-84
2022/01/19 07:02:25;;;;;;;35.10;22.00;;;4.30;99.90;;;;;;5070370;28;20047;-84
2022/01/19 07:04:51;;;;;;;30.88;21.75;;;4.30;99.90;;;;;;5085739;28;20074;-84
2022/01/19 07:07:19;;;;;;;33.13;22.60;;;4.30;99.90;;;;;;5069789;28;20532;-84
2022/01/19 07:09:45;;;;;;;30.00;20.77;;;4.30;99.90;;;;;;5068808;28;20040;-84
2022/01/19 07:12:11;;;;;;;33.20;21.67;;;4.40;99.90;;;;;;5070458;28;20056;-84
2022/01/19 07:14:37;;;;;;;31.13;20.13;;;4.40;99.90;;;;;;5052278;28;20052;-84
2022/01/19 07:17:04;;;;;;;31.48;21.90;;;4.40;99.90;;;;;;5063925;28;20138;-84
2022/01/19 07:19:29;;;;;;;32.15;21.08;;;4.40;99.90;;;;;;5070020;28;20032;-85
2022/01/19 07:21:56;;;;;;;29.55;21.50;;;4.40;99.90;;;;;;5068683;28;20040;-84
2022/01/19 07:24:21;;;;;;;34.33;21.05;;;4.40;99.90;;;;;;5068700;28;20036;-84
2022/01/19 07:26:47;;;;;;;27.38;19.67;;;4.40;99.90;;;;;;5079569;28;20039;-85
2022/01/19 07:29:14;;;;;;;29.38;20.80;;;4.40;99.90;;;;;;5081009;28;20055;-84
2022/01/19 07:31:41;;;;;;;31.42;20.52;;;4.50;99.90;;;;;;5084248;28;20036;-84
2022/01/19 07:34:08;;;;;;;27.77;20.90;;;4.50;99.90;;;;;;5086772;28;20089;-84
2022/01/19 07:36:33;;;;;;;28.30;20.65;;;4.50;99.90;;;;;;5055023;28;20028;-84
2022/01/19 07:38:59;;;;;;;27.90;20.75;;;4.50;99.90;;;;;;5066869;28;20037;-84
2022/01/19 07:41:25;;;;;;;26.23;20.05;;;4.50;99.90;;;;;;5068344;28;20044;-84
2022/01/19 07:43:50;;;;;;;30.65;21.05;;;4.50;99.90;;;;;;5069487;28;20385;-85
2022/01/19 07:46:17;;;;;;;28.30;20.55;;;4.50;99.90;;;;;;5068023;28;20040;-84
2022/01/19 07:48:43;;;;;;;29.88;20.98;;;4.50;99.90;;;;;;5072920;28;20051;-85
2022/01/19 07:51:09;;;;;;;29.13;20.40;;;4.50;99.90;;;;;;5056730;28;20041;-84
2022/01/19 07:53:34;;;;;;;30.55;20.05;;;4.50;99.90;;;;;;5058452;28;20029;-85
2022/01/19 07:56:00;;;;;;;25.90;18.67;;;4.50;99.90;;;;;;5057874;28;20120;-85
2022/01/19 07:58:26;;;;;;;28.33;20.10;;;4.50;99.90;;;;;;5049771;28;20389;-84
2022/01/19 08:00:51;;;;;;;30.08;20.58;;;4.50;99.90;;;;;;5061423;28;20040;-85
2022/01/19 08:03:18;;;;;;;26.48;18.48;;;4.50;99.90;;;;;;5068629;28;20029;-84
2022/01/19 08:05:44;;;;;;;27.58;19.55;;;4.50;99.90;;;;;;5079636;28;20157;-85
2022/01/19 08:08:10;;;;;;;26.77;18.52;;;4.60;99.90;;;;;;5071106;28;20024;-85
2022/01/19 08:10:36;;;;;;;26.65;18.73;;;4.50;99.90;;;;;;5056069;28;20652;-85
2022/01/19 08:13:03;;;;;;;24.13;17.70;;;4.60;99.90;;;;;;5051037;28;20039;-85
2022/01/19 08:15:30;;;;;;;28.80;18.67;;;4.50;99.90;;;;;;5077351;28;20061;-85
2022/01/19 08:17:56;;;;;;;25.73;18.40;;;4.60;99.90;;;;;;5087901;28;20554;-85
2022/01/19 08:20:23;;;;;;;26.30;19.08;;;4.70;99.90;;;;;;5045136;28;20056;-85
2022/01/19 08:22:48;;;;;;;27.10;18.00;;;4.70;99.90;;;;;;5050883;28;20546;-84
2022/01/19 08:25:14;;;;;;;24.77;18.02;;;4.80;99.90;;;;;;5074060;28;20066;-85
2022/01/19 08:27:40;;;;;;;25.63;18.90;;;4.80;99.90;;;;;;5087584;28;20081;-85
2022/01/19 08:30:07;;;;;;;25.55;18.63;;;4.80;99.90;;;;;;5080209;28;20036;-84
2022/01/19 08:32:35;;;;;;;26.58;19.67;;;4.80;99.90;;;;;;5051072;28;20086;-85
2022/01/19 08:35:02;;;;;;;26.23;19.25;;;4.90;99.90;;;;;;5071999;28;20032;-85
2022/01/19 08:37:28;;;;;;;26.50;19.77;;;4.90;99.90;;;;;;5087767;28;20111;-84
2022/01/19 08:39:54;;;;;;;23.52;18.52;;;4.90;99.90;;;;;;5048723;28;20450;-85
2022/01/19 08:42:20;;;;;;;25.33;18.60;;;4.90;99.90;;;;;;5049230;28;20387;-85
2022/01/19 08:44:46;;;;;;;28.00;19.48;;;4.90;99.90;;;;;;5081892;28;20039;-85
2022/01/19 08:47:11;;;;;;;28.27;19.65;;;5.00;99.90;;;;;;5050870;28;20827;-85
2022/01/19 08:49:37;;;;;;;25.23;19.05;;;5.00;99.90;;;;;;5067144;28;20485;-85
2022/01/19 08:52:04;;;;;;;28.73;20.00;;;4.90;99.90;;;;;;5050736;28;20040;-85
2022/01/19 08:54:31;;;;;;;25.35;19.38;;;5.00;99.90;;;;;;5065645;28;20492;-85
2022/01/19 08:56:59;;;;;;;26.05;18.58;;;5.00;99.90;;;;;;5067840;28;20385;-83
2022/01/19 08:59:26;;;;;;;27.23;18.87;;;5.00;99.90;;;;;;5080663;28;20035;-85
2022/01/19 09:01:51;;;;;;;24.40;18.48;;;5.00;99.90;;;;;;5050776;28;20282;-85
2022/01/19 09:04:18;;;;;;;27.08;18.85;;;5.10;99.90;;;;;;5067338;28;20123;-85
2022/01/19 09:06:44;;;;;;;24.92;19.33;;;5.10;99.90;;;;;;5067572;28;20040;-85
2022/01/19 09:09:11;;;;;;;27.20;20.05;;;5.10;99.90;;;;;;5067146;28;20059;-85
2022/01/19 09:11:37;;;;;;;25.08;18.52;;;5.10;99.90;;;;;;5068564;28;20036;-85
2022/01/19 09:14:06;;;;;;;22.10;17.98;;;5.00;99.90;;;;;;5074526;28;20029;-85
2022/01/19 09:16:33;;;;;;;26.52;18.92;;;4.90;99.90;;;;;;5071232;28;20120;-84
2022/01/19 09:18:59;;;;;;;25.55;19.90;;;5.00;99.90;;;;;;5054533;28;20134;-85
2022/01/19 09:21:24;;;;;;;25.48;19.40;;;5.00;99.90;;;;;;5082079;28;20389;-84
2022/01/19 09:23:50;;;;;;;25.00;18.00;;;5.00;99.90;;;;;;5054355;28;20057;-85
2022/01/19 09:26:16;;;;;;;25.88;19.05;;;5.00;99.90;;;;;;5070779;28;20032;-85
2022/01/19 09:28:42;;;;;;;28.83;19.08;;;5.10;99.90;;;;;;5070759;28;20536;-85
2022/01/19 09:31:12;;;;;;;25.95;19.75;;;5.10;99.90;;;;;;5073222;28;20059;-85
2022/01/19 09:33:38;;;;;;;26.10;18.73;;;5.10;99.90;;;;;;5074134;28;20472;-85
2022/01/19 09:36:28;;;;;;;28.08;19.88;;;5.10;99.90;;;;;;5069060;28;20103;-85
2022/01/19 09:38:52;;;;;;;27.52;19.52;;;5.10;99.90;;;;;;5078274;28;20032;-84
2022/01/19 09:41:20;;;;;;;26.23;18.20;;;5.10;99.90;;;;;;5086875;28;20133;-85
2022/01/19 09:43:46;;;;;;;25.30;18.92;;;5.20;99.90;;;;;;5077523;28;20467;-85
2022/01/19 09:46:11;;;;;;;27.90;20.40;;;5.20;99.90;;;;;;5056194;28;20052;-84
2022/01/19 09:48:37;;;;;;;28.67;19.58;;;5.20;99.90;;;;;;5065739;28;20385;-85
2022/01/19 09:51:03;;;;;;;23.65;18.52;;;5.20;99.90;;;;;;5081717;28;20447;-85
2022/01/19 09:53:29;;;;;;;24.88;19.20;;;5.20;99.90;;;;;;5071440;28;20032;-85
2022/01/19 09:55:55;;;;;;;27.70;19.58;;;5.30;99.90;;;;;;5055983;28;20098;-84
2022/01/19 09:58:22;;;;;;;29.98;20.35;;;5.20;99.90;;;;;;5084675;28;20071;-84
2022/01/19 10:00:49;;;;;;;25.30;19.83;;;5.30;99.90;;;;;;5054119;28;20033;-85
2022/01/19 10:03:21;;;;;;;26.60;19.52;;;5.30;99.90;;;;;;5073059;28;20072;-85
2022/01/19 10:05:54;;;;;;;25.48;18.85;;;5.30;99.90;;;;;;5072908;28;20421;-85
2022/01/19 10:08:44;;;;;;;25.88;18.52;;;5.30;99.90;;;;;;5087702;28;20036;-85
2022/01/19 10:11:26;;;;;;;26.17;18.85;;;5.30;99.90;;;;;;5085091;28;20398;-85
2022/01/19 10:17:02;;;;;;;26.73;19.25;;;5.30;99.90;;;;;;5074054;28;20035;-82
2022/01/19 10:19:43;;;;;;;27.85;18.95;;;5.30;99.90;;;;;;5071450;28;20055;-82
2022/01/19 10:22:26;;;;;;;26.98;19.33;;;5.30;99.90;;;;;;5070308;28;20040;-82
2022/01/19 10:24:57;;;;;;;26.85;19.23;;;5.30;99.90;;;;;;5069510;28;20028;-82
2022/01/19 10:27:27;;;;;;;29.27;19.17;;;5.30;99.90;;;;;;5069980;28;20090;-82
2022/01/19 10:30:02;;;;;;;26.75;20.02;;;5.30;99.90;;;;;;5074813;28;20043;-82
2022/01/19 10:32:28;;;;;;;25.73;19.20;;;5.30;99.90;;;;;;5071041;28;20518;-82
2022/01/19 10:34:54;;;;;;;26.70;18.98;;;5.40;99.90;;;;;;5069254;28;20028;-82
2022/01/19 10:37:27;;;;;;;26.10;19.98;;;5.30;99.90;;;;;;5069676;28;20067;-82
2022/01/19 10:39:57;;;;;;;30.80;21.23;;;5.30;99.90;;;;;;5074496;28;20115;-82
2022/01/19 10:42:30;;;;;;;27.20;19.90;;;5.40;99.90;;;;;;5080540;28;20031;-82
2022/01/19 10:45:06;;;;;;;28.45;20.05;;;5.40;99.90;;;;;;5079364;28;20499;-82
2022/01/19 10:47:53;;;;;;;27.95;19.85;;;5.40;99.90;;;;;;5069170;28;20418;-83
2022/01/19 10:50:30;;;;;;;28.40;19.40;;;5.40;99.90;;;;;;5100857;28;20036;-83
2022/01/19 10:53:01;;;;;;;27.67;20.20;;;5.50;99.90;;;;;;5106509;28;20034;-83
2022/01/19 10:55:42;;;;;;;26.10;20.20;;;5.40;99.90;;;;;;5089606;28;20121;-83
2022/01/19 10:58:14;;;;;;;27.33;19.40;;;5.50;99.90;;;;;;5088381;28;20077;-83
2022/01/19 11:00:48;;;;;;;30.83;19.92;;;5.40;99.90;;;;;;5070657;28;20036;-83
2022/01/19 11:03:20;;;;;;;29.60;20.83;;;5.40;99.90;;;;;;5069035;28;20045;-83
2022/01/19 11:05:53;;;;;;;28.52;20.58;;;5.40;99.90;;;;;;5070459;28;20090;-83
2022/01/19 11:08:21;;;;;;;28.55;20.42;;;5.40;99.90;;;;;;5068852;28;20032;-83
2022/01/19 11:10:49;;;;;;;31.02;21.13;;;5.40;99.90;;;;;;5068830;28;20028;-83
2022/01/19 11:13:39;;;;;;;26.23;18.73;;;5.50;99.90;;;;;;5052684;28;20025;-83
2022/01/19 11:16:05;;;;;;;28.45;21.02;;;5.50;99.90;;;;;;5070167;28;20439;-83
2022/01/19 11:18:35;;;;;;;25.48;19.98;;;5.60;99.90;;;;;;5068620;28;20020;-83
2022/01/19 11:21:11;;;;;;;27.75;20.67;;;5.60;99.90;;;;;;5068826;28;20036;-82
2022/01/19 11:24:00;;;;;;;26.15;20.58;;;5.60;99.90;;;;;;5051886;28;20443;-82
2022/01/19 11:26:31;;;;;;;26.40;19.50;;;5.60;99.90;;;;;;5068403;28;20059;-83
2022/01/19 11:29:18;;;;;;;29.15;20.25;;;5.60;99.90;;;;;;5068608;28;20485;-83
2022/01/19 11:31:44;;;;;;;30.27;20.58;;;5.60;99.90;;;;;;5071190;28;20021;-83
2022/01/19 11:34:10;;;;;;;27.58;20.80;;;5.60;99.90;;;;;;5072143;28;20024;-83
2022/01/19 11:36:42;;;;;;;30.65;21.50;;;5.50;99.90;;;;;;5070663;28;20508;-83
2022/01/19 11:39:21;;;;;;;32.47;21.55;;;5.50;99.90;;;;;;5051118;28;20036;-83
2022/01/19 11:41:54;;;;;;;28.85;21.25;;;5.50;99.90;;;;;;5063686;28;20032;-83
2022/01/19 11:44:32;;;;;;;30.38;21.40;;;5.50;99.90;;;;;;5066057;28;20402;-83
2022/01/19 11:47:11;;;;;;;27.25;20.35;;;5.50;99.90;;;;;;5082723;28;20032;-83
2022/01/19 11:49:53;;;;;;;30.70;22.23;;;5.50;99.90;;;;;;5069226;28;20021;-83
2022/01/19 11:52:23;;;;;;;30.60;20.55;;;5.50;99.90;;;;;;5069684;28;20425;-83
2022/01/19 11:54:51;;;;;;;33.67;21.40;;;5.50;99.90;;;;;;5067950;28;20039;-83
2022/01/19 11:57:22;;;;;;;32.67;21.65;;;5.50;99.90;;;;;;5040709;28;20087;-83
2022/01/19 11:59:48;;;;;;;32.20;21.60;;;5.50;99.90;;;;;;5068368;28;20059;-83
2022/01/19 12:02:32;;;;;;;33.55;23.02;;;5.60;99.90;;;;;;5068211;28;20040;-83
2022/01/19 12:04:58;;;;;;;32.72;22.05;;;5.50;99.90;;;;;;5068015;28;20785;-83
2022/01/19 12:07:53;;;;;;;32.92;23.25;;;5.60;99.90;;;;;;5069407;28;20040;-83
2022/01/19 12:10:23;;;;;;;28.60;20.75;;;5.50;99.90;;;;;;5077070;28;20029;-83
2022/01/19 12:13:33;;;;;;;28.52;21.40;;;5.60;99.90;;;;;;5075789;28;20052;-83
2022/01/19 12:16:30;;;;;;;30.77;22.20;;;5.60;99.90;;;;;;5070198;28;20029;-83
2022/01/19 12:19:13;;;;;;;34.28;23.65;;;5.50;99.90;;;;;;5065925;28;20131;-83
2022/01/19 12:21:58;;;;;;;31.88;22.15;;;5.50;99.90;;;;;;5068408;28;20025;-83
2022/01/19 12:24:37;;;;;;;32.30;21.83;;;5.50;99.90;;;;;;5067793;28;20033;-83
2022/01/19 12:27:15;;;;;;;;;;;5.60;99.90;;;;;;5077987;28;20126;-83
2022/01/19 12:29:42;;;;;;;37.42;22.00;;;5.60;99.90;;;;;;5087629;28;20265;-83
2022/01/19 12:32:17;;;;;;;29.90;21.63;;;5.60;99.90;;;;;;5069298;28;20425;-83
2022/01/19 12:34:46;;;;;;;41.40;23.40;;;5.60;99.90;;;;;;5069310;28;20025;-83
2022/01/19 12:37:33;;;;;;;34.08;21.30;;;5.60;99.90;;;;;;5086190;28;20085;-83
2022/01/19 12:40:06;;;;;;;34.60;23.05;;;5.60;99.90;;;;;;5069452;28;20479;-83
2022/01/19 12:42:46;;;;;;;33.40;22.08;;;5.60;99.90;;;;;;5067748;28;20032;-83
2022/01/19 12:45:27;;;;;;;34.13;22.83;;;5.60;99.90;;;;;;5074130;28;20063;-84
2022/01/19 12:48:04;;;;;;;35.25;23.08;;;5.60;99.90;;;;;;5089710;28;20085;-83
2022/01/19 12:50:29;;;;;;;34.25;22.98;;;5.60;99.90;;;;;;5091482;28;20043;-85
2022/01/19 12:53:01;;;;;;;32.85;23.17;;;5.50;99.90;;;;;;5092004;28;20028;-85
2022/01/19 12:55:28;;;;;;;38.45;24.13;;;5.60;99.90;;;;;;5090314;28;20111;-85
2022/01/19 12:57:56;;;;;;;33.22;23.75;;;5.60;99.90;;;;;;5078160;28;20489;-84
2022/01/19 13:00:29;;;;;;;37.08;25.35;;;5.60;99.90;;;;;;5054149;28;20040;-85
2022/01/19 13:02:57;;;;;;;38.05;25.58;;;5.60;99.90;;;;;;5083896;28;20089;-84
2022/01/19 13:05:24;;;;;;;39.35;26.30;;;5.50;99.90;;;;;;5069609;28;20071;-86
2022/01/19 13:07:57;;;;;;;35.42;24.98;;;5.50;99.90;;;;;;5081761;28;20552;-84
2022/01/19 13:15:44;;;;;;;43.30;27.77;;;5.50;99.90;;;;;;5071820;28;20704;-83
2022/01/19 13:18:11;;;;;;;39.60;25.80;;;5.50;99.90;;;;;;5071500;28;20028;-83
2022/01/19 13:20:52;;;;;;;36.83;26.45;;;5.60;99.90;;;;;;5071411;28;20392;-83
2022/01/19 13:23:18;;;;;;;41.03;26.70;;;5.60;99.90;;;;;;5071237;28;20052;-83
2022/01/19 13:25:53;;;;;;;47.83;29.20;;;5.60;99.90;;;;;;5071369;28;20036;-83
2022/01/19 13:28:25;;;;;;;42.47;27.70;;;5.50;99.90;;;;;;5072443;28;20032;-82
2022/01/19 13:30:51;;;;;;;43.17;28.40;;;5.50;99.90;;;;;;5072024;28;20165;-83
2022/01/19 13:33:17;;;;;;;41.92;27.20;;;5.50;99.90;;;;;;5054067;28;20430;-83
2022/01/19 13:35:42;;;;;;;45.30;29.13;;;5.60;99.90;;;;;;5072267;28;20124;-83
2022/01/19 13:38:14;;;;;;;45.90;29.15;;;5.50;99.90;;;;;;5054196;28;20489;-83
2022/01/19 13:40:39;;;;;;;46.13;30.05;;;5.50;99.90;;;;;;5050567;28;20040;-83
2022/01/19 13:43:11;;;;;;;44.22;29.40;;;5.60;99.90;;;;;;5067436;28;20033;-83
2022/01/19 13:48:28;;;;;;;48.30;30.33;;;5.60;99.90;;;;;;5050766;28;20040;-83
2022/01/19 13:50:57;;;;;;;46.08;30.92;;;5.60;99.90;;;;;;5070257;28;20385;-83
2022/01/19 13:53:35;;;;;;;49.25;28.90;;;5.60;99.90;;;;;;5070661;28;20028;-83
2022/01/19 13:56:04;;;;;;;49.57;30.80;;;5.60;99.90;;;;;;5071933;28;20021;-83
2022/01/19 13:58:41;;;;;;;47.80;30.27;;;5.60;99.90;;;;;;5068601;28;20279;-83
2022/01/19 14:01:13;;;;;;;45.47;30.77;;;5.60;99.90;;;;;;5077070;28;20371;-85
2022/01/19 14:03:44;;;;;;;48.97;31.02;;;5.60;99.90;;;;;;5070205;28;20024;-85
2022/01/19 14:06:22;;;;;;;47.40;30.73;;;5.60;99.90;;;;;;5071372;28;20062;-85
2022/01/19 14:08:48;;;;;;;47.70;30.10;;;5.60;99.90;;;;;;5071220;28;20402;-84
2022/01/19 14:11:25;;;;;;;49.33;31.52;;;5.60;99.90;;;;;;5074753;28;20024;-86
2022/01/19 14:14:02;;;;;;;48.25;30.58;;;5.60;99.90;;;;;;5058678;28;20037;-84
2022/01/19 14:16:32;;;;;;;49.03;31.52;;;5.60;99.90;;;;;;5075384;28;20101;-84
2022/01/19 14:19:19;;;;;;;47.67;29.20;;;5.60;99.90;;;;;;5084758;28;20051;-85